createdAt,value
2022-09-06T00:00:19.052Z,64.62
2022-09-06T00:05:41.502Z,64.77
2022-09-06T00:11:02.453Z,64.95
2022-09-06T00:16:27.377Z,65.01
2022-09-06T00:21:50.800Z,64.88
2022-09-06T00:27:11.541Z,64.83
2022-09-06T00:32:33.029Z,65.04
2022-09-06T00:37:58.462Z,64.81
2022-09-06T00:43:19.246Z,64.75
2022-09-06T00:48:41.629Z,64.73
2022-09-06T00:54:07.866Z,64.64
2022-09-06T00:59:31.339Z,64.60
2022-09-06T01:04:52.873Z,64.47
2022-09-06T01:10:22.761Z,64.56
2022-09-06T01:15:43.670Z,64.29
2022-09-06T01:21:10.680Z,64.27
2022-09-06T01:27:15.110Z,64.43
2022-09-06T01:32:49.113Z,64.18
2022-09-06T01:38:10.780Z,64.54
2022-09-06T01:43:38.661Z,64.17
2022-09-06T01:49:17.247Z,64.11
2022-09-06T01:54:51.506Z,64.32
2022-09-06T02:00:14.918Z,63.92
2022-09-06T02:05:38.532Z,64.15
2022-09-06T02:11:02.757Z,64.16
2022-09-06T02:16:26.881Z,64.17
2022-09-06T02:21:49.375Z,64.18
2022-09-06T02:27:12.100Z,64.40
2022-09-06T02:32:39.314Z,64.26
2022-09-06T02:37:59.919Z,63.83
2022-09-06T02:43:21.489Z,63.68
2022-09-06T02:48:42.066Z,63.53
2022-09-06T02:54:02.656Z,63.29
2022-09-06T02:59:23.209Z,63.57
2022-09-06T03:04:43.907Z,63.65
2022-09-06T03:10:05.112Z,63.72
2022-09-06T03:15:26.005Z,63.81
2022-09-06T03:20:49.788Z,63.70
2022-09-06T03:26:10.488Z,63.37
2022-09-06T03:31:30.949Z,63.27
2022-09-06T03:36:51.693Z,63.42
2022-09-06T03:42:12.946Z,63.13
2022-09-06T03:47:33.916Z,63.32
2022-09-06T03:52:54.602Z,63.24
2022-09-06T03:58:16.538Z,63.30
2022-09-06T04:03:39.097Z,63.48
2022-09-06T04:08:59.639Z,63.55
2022-09-06T04:14:20.311Z,62.92
2022-09-06T04:19:40.879Z,63.71
2022-09-06T04:25:01.649Z,63.71
2022-09-06T04:30:22.250Z,63.62
2022-09-06T04:35:42.859Z,63.79
2022-09-06T04:41:04.161Z,63.80
2022-09-06T04:46:30.343Z,63.94
2022-09-06T04:51:51.176Z,63.83
2022-09-06T04:57:11.973Z,63.49
2022-09-06T05:02:33.439Z,63.47
2022-09-06T05:07:55.152Z,63.81
2022-09-06T05:13:15.722Z,63.68
2022-09-06T05:18:36.470Z,63.65
2022-09-06T05:23:58.858Z,63.83
2022-09-06T05:29:19.886Z,64.08
2022-09-06T05:34:40.601Z,64.03
2022-09-06T05:40:01.939Z,64.62
2022-09-06T05:45:23.079Z,63.95
2022-09-06T05:50:43.973Z,63.58
2022-09-06T05:56:05.634Z,63.77
2022-09-06T06:01:28.485Z,63.27
2022-09-06T06:06:49.587Z,63.62
2022-09-06T06:12:10.441Z,63.36
2022-09-06T06:17:31.236Z,63.65
2022-09-06T06:22:51.720Z,63.46
2022-09-06T06:28:12.268Z,64.08
2022-09-06T06:33:33.434Z,63.96
2022-09-06T06:38:55.437Z,63.64
2022-09-06T06:44:16.273Z,63.18
2022-09-06T06:49:36.825Z,63.13
2022-09-06T06:54:57.487Z,63.00
2022-09-06T07:00:18.118Z,62.96
2022-09-06T07:11:24.331Z,63.22
2022-09-06T07:16:46.343Z,63.07
2022-09-06T07:22:09.390Z,63.41
2022-09-06T07:27:47.314Z,63.64
2022-09-06T07:33:09.100Z,63.20
2022-09-06T07:38:30.492Z,62.52
2022-09-06T07:43:57.254Z,61.86
2022-09-06T07:49:18.088Z,61.95
2022-09-06T07:54:38.611Z,61.54
2022-09-06T07:59:59.123Z,62.23
2022-09-06T08:11:00.573Z,61.50
2022-09-06T08:16:22.178Z,61.52
2022-09-06T08:21:42.822Z,61.07
2022-09-06T08:27:03.801Z,61.26
2022-09-06T08:32:24.436Z,61.62
2022-09-06T08:37:45.098Z,61.29
2022-09-06T08:43:21.615Z,61.77
2022-09-06T08:48:42.951Z,61.43
2022-09-06T08:54:12.424Z,61.51
2022-09-06T08:59:39.822Z,61.16
2022-09-06T09:05:06.261Z,61.50
2022-09-06T09:10:37.042Z,60.95
2022-09-06T09:15:57.801Z,61.08
2022-09-06T09:21:26.799Z,61.24
2022-09-06T09:27:11.366Z,60.86
2022-09-06T09:32:36.876Z,61.48
2022-09-06T09:38:23.257Z,60.83
2022-09-06T09:44:00.051Z,60.57
2022-09-06T09:49:24.435Z,60.54
2022-09-06T09:54:46.919Z,60.91
2022-09-06T10:00:13.273Z,60.72
2022-09-06T10:05:34.084Z,60.78
2022-09-06T10:10:54.670Z,60.58
2022-09-06T10:16:15.645Z,60.36
2022-09-06T10:21:36.239Z,60.10
2022-09-06T10:27:02.047Z,60.58
2022-09-06T10:32:46.122Z,60.36
2022-09-06T10:38:15.751Z,60.58
2022-09-06T10:44:21.109Z,60.46
2022-09-06T10:49:48.769Z,60.52
2022-09-06T10:55:14.414Z,60.39
2022-09-06T11:00:47.508Z,60.45
2022-09-06T11:06:10.531Z,60.44
2022-09-06T11:11:52.961Z,60.11
2022-09-06T11:17:33.154Z,60.08
2022-09-06T11:23:31.002Z,59.83
2022-09-06T11:28:58.543Z,60.31
2022-09-06T11:34:33.980Z,59.70
2022-09-06T11:40:29.959Z,59.93
2022-09-06T11:45:53.023Z,59.61
2022-09-06T11:51:33.682Z,59.34
2022-09-06T11:57:02.478Z,59.71
2022-09-06T12:02:43.130Z,59.47
2022-09-06T12:08:25.842Z,59.21
2022-09-06T12:13:46.903Z,59.22
2022-09-06T12:19:08.423Z,58.88
2022-09-06T12:24:35.329Z,58.61
2022-09-06T12:29:59.703Z,58.85
2022-09-06T12:41:05.849Z,58.41
2022-09-06T12:46:30.015Z,57.91
2022-09-06T12:51:50.811Z,58.33
2022-09-06T12:57:23.616Z,57.60
2022-09-06T13:02:56.733Z,57.91
2022-09-06T13:08:26.011Z,57.83
2022-09-06T13:13:51.904Z,57.57
2022-09-06T13:19:19.413Z,57.20
2022-09-06T13:24:47.055Z,57.52
2022-09-06T13:30:10.474Z,56.93
2022-09-06T13:35:34.582Z,57.38
2022-09-06T13:41:14.678Z,57.20
2022-09-06T13:46:36.603Z,57.31
2022-09-06T13:52:03.262Z,57.49
2022-09-06T13:57:24.724Z,57.04
2022-09-06T14:02:47.461Z,57.12
2022-09-06T14:08:08.327Z,56.92
2022-09-06T14:13:30.278Z,57.33
2022-09-06T14:18:52.109Z,57.10
2022-09-06T14:24:12.936Z,57.05
2022-09-06T14:29:35.223Z,57.32
2022-09-06T14:34:56.096Z,56.90
2022-09-06T14:40:17.480Z,57.05
2022-09-06T14:45:38.072Z,57.05
2022-09-06T14:50:59.515Z,57.34
2022-09-06T14:56:21.180Z,57.88
2022-09-06T15:01:42.029Z,58.34
2022-09-06T15:07:02.989Z,58.36
2022-09-06T15:12:24.713Z,58.50
2022-09-06T15:17:46.104Z,58.30
2022-09-06T15:23:34.281Z,58.81
2022-09-06T15:28:48.181Z,59.22
2022-09-06T15:34:10.511Z,59.58
2022-09-06T15:39:31.413Z,59.62
2022-09-06T15:44:52.234Z,59.84
2022-09-06T15:50:12.991Z,59.66
2022-09-06T15:55:52.024Z,60.33
2022-09-06T16:01:18.418Z,61.08
2022-09-06T16:06:42.658Z,61.47
2022-09-06T16:12:03.930Z,62.17
2022-09-06T16:17:27.493Z,62.83
2022-09-06T16:22:49.500Z,62.87
2022-09-06T16:28:10.378Z,62.79
2022-09-06T16:33:32.605Z,63.51
2022-09-06T16:38:54.912Z,63.30
2022-09-06T16:44:18.018Z,63.37
2022-09-06T16:49:38.983Z,63.45
2022-09-06T16:55:00.284Z,63.68
2022-09-06T17:00:20.922Z,63.84
2022-09-06T17:05:41.731Z,63.75
2022-09-06T17:11:14.737Z,63.65
2022-09-06T17:16:54.328Z,63.75
2022-09-06T17:22:15.143Z,64.29
2022-09-06T17:27:36.051Z,64.34
2022-09-06T17:32:56.940Z,64.47
2022-09-06T17:38:17.927Z,64.60
2022-09-06T17:43:38.695Z,64.63
2022-09-06T17:54:20.018Z,64.91
2022-09-06T17:59:40.643Z,64.47
2022-09-06T18:05:01.405Z,64.11
2022-09-06T18:10:21.854Z,64.73
2022-09-06T18:15:42.721Z,64.67
2022-09-06T18:21:06.945Z,64.80
2022-09-06T18:26:27.610Z,64.26
2022-09-06T18:31:48.511Z,64.44
2022-09-06T18:37:09.251Z,64.47
2022-09-06T18:42:30.408Z,64.74
2022-09-06T18:47:50.976Z,64.90
2022-09-06T18:53:11.911Z,64.53
2022-09-06T18:58:33.458Z,64.81
2022-09-06T19:03:55.602Z,64.90
2022-09-06T19:09:17.268Z,64.97
2022-09-06T19:14:39.265Z,65.14
2022-09-06T19:20:00.845Z,65.07
2022-09-06T19:25:21.732Z,65.20
2022-09-06T19:30:42.401Z,64.92
2022-09-06T19:36:11.657Z,64.94
2022-09-06T19:41:39.002Z,64.93
2022-09-06T19:47:00.331Z,64.76
2022-09-06T19:52:21.127Z,64.67
2022-09-06T19:57:41.954Z,65.18
2022-09-06T20:03:02.632Z,64.92
2022-09-06T20:08:23.534Z,64.80
2022-09-06T20:13:44.299Z,64.57
2022-09-06T20:19:05.473Z,64.67
2022-09-06T20:24:28.236Z,64.90
2022-09-06T20:29:48.882Z,64.49
2022-09-06T20:35:09.653Z,64.86
2022-09-06T20:40:30.895Z,65.24
2022-09-06T20:45:52.225Z,65.25
2022-09-06T20:51:19.497Z,65.26
2022-09-06T20:56:41.978Z,65.43
2022-09-06T21:02:02.939Z,65.32
2022-09-06T21:07:23.666Z,65.30
2022-09-06T21:12:44.555Z,65.48
2022-09-06T21:18:05.720Z,65.39
2022-09-06T21:23:27.618Z,65.25
2022-09-06T21:28:49.279Z,65.50
2022-09-06T21:34:16.331Z,65.39
2022-09-06T21:39:38.360Z,65.46
2022-09-06T21:44:59.137Z,65.40
2022-09-06T21:50:19.956Z,65.53
2022-09-06T21:55:41.187Z,65.80
2022-09-06T22:01:03.814Z,66.52
2022-09-06T22:06:26.613Z,65.90
2022-09-06T22:11:47.319Z,65.84
2022-09-06T22:17:09.300Z,65.89
2022-09-06T22:22:30.108Z,66.00
2022-09-06T22:27:50.673Z,65.91
2022-09-06T22:33:11.470Z,65.79
2022-09-06T22:38:33.287Z,66.01
2022-09-06T22:43:54.626Z,66.03
2022-09-06T22:49:15.262Z,65.80
2022-09-06T22:54:36.469Z,66.06
2022-09-06T22:59:57.086Z,66.19
2022-09-06T23:05:17.692Z,66.16
2022-09-06T23:10:43.317Z,66.11
2022-09-06T23:16:09.044Z,66.21
2022-09-06T23:21:29.865Z,66.12
2022-09-06T23:26:50.687Z,65.94
2022-09-06T23:32:11.241Z,65.80
2022-09-06T23:37:31.925Z,65.89
2022-09-06T23:42:52.450Z,65.92
2022-09-06T23:48:13.135Z,65.95
2022-09-06T23:53:33.909Z,65.90
2022-09-06T23:58:55.070Z,66.12
